createdAt,value
2022-10-15T00:01:52.113Z,96045.56
2022-10-15T00:04:20.905Z,96056.19
2022-10-15T00:06:49.255Z,96047.47
2022-10-15T00:09:18.259Z,96041.69
2022-10-15T00:11:46.876Z,96037.06
2022-10-15T00:14:16.122Z,96040.59
2022-10-15T00:16:46.183Z,96037.38
2022-10-15T00:19:14.642Z,96038.19
2022-10-15T00:21:43.794Z,96039.00
2022-10-15T00:24:12.124Z,96037.91
2022-10-15T00:26:41.291Z,96033.78
2022-10-15T00:29:09.783Z,96038.41
2022-10-15T00:31:38.980Z,96027.81
2022-10-15T00:34:09.651Z,96021.81
2022-10-15T00:36:38.482Z,96025.34
2022-10-15T00:39:08.256Z,96024.53
2022-10-15T00:41:39.134Z,96022.34
2022-10-15T00:44:41.164Z,96010.66
2022-10-15T00:47:18.177Z,95998.13
2022-10-15T00:49:52.671Z,96013.13
2022-10-15T00:52:26.601Z,96004.38
2022-10-15T00:55:01.262Z,96014.75
2022-10-15T00:57:32.076Z,96002.22
2022-10-15T01:00:08.154Z,96001.94
2022-10-15T01:02:36.747Z,95991.31
2022-10-15T01:05:08.525Z,95991.31
2022-10-15T01:07:36.868Z,95996.78
2022-10-15T01:10:07.203Z,95989.69
2022-10-15T01:12:50.427Z,95991.63
2022-10-15T01:15:24.086Z,95986.44
2022-10-15T01:17:58.084Z,95983.16
2022-10-15T01:20:52.633Z,95982.34
2022-10-15T01:23:36.771Z,95984.53
2022-10-15T01:26:36.529Z,95976.66
2022-10-15T01:29:21.614Z,95972.81
2022-10-15T01:31:59.909Z,95966.56
2022-10-15T01:34:38.556Z,95970.38
2022-10-15T01:37:12.704Z,95966.56
2022-10-15T01:39:46.540Z,95957.84
2022-10-15T01:42:20.112Z,95961.13
2022-10-15T01:44:54.837Z,95953.50
2022-10-15T01:47:45.112Z,95956.50
2022-10-15T01:50:17.357Z,95955.41
2022-10-15T01:52:46.644Z,95955.41
2022-10-15T01:55:17.771Z,95948.34
2022-10-15T01:57:47.315Z,95948.84
2022-10-15T02:00:17.537Z,95945.06
2022-10-15T02:02:47.850Z,95937.16
2022-10-15T02:05:23.120Z,95926.28
2022-10-15T02:08:01.794Z,95930.09
2022-10-15T02:10:43.252Z,95928.19
2022-10-15T02:13:20.157Z,95924.38
2022-10-15T02:15:58.915Z,95922.19
2022-10-15T02:18:37.136Z,95923.28
2022-10-15T02:21:11.658Z,95922.75
2022-10-15T02:23:46.328Z,95916.75
2022-10-15T02:26:16.953Z,95913.75
2022-10-15T02:28:53.928Z,95918.66
2022-10-15T02:31:24.265Z,95911.31
2022-10-15T02:33:59.598Z,95907.78
2022-10-15T02:36:28.611Z,95906.41
2022-10-15T02:38:59.307Z,95906.97
2022-10-15T02:41:29.862Z,95899.63
2022-10-15T02:43:58.415Z,95886.28
2022-10-15T02:46:27.958Z,95897.44
2022-10-15T02:48:58.070Z,95894.72
2022-10-15T02:51:27.608Z,95893.63
2022-10-15T02:53:56.126Z,95892.53
2022-10-15T02:56:26.642Z,95893.91
2022-10-15T02:58:55.559Z,95887.09
2022-10-15T03:01:24.739Z,95883.56
2022-10-15T03:03:53.296Z,95889.28
2022-10-15T03:06:24.086Z,95882.47
2022-10-15T03:08:53.022Z,95880.84
2022-10-15T03:11:24.670Z,95879.47
2022-10-15T03:13:53.702Z,95879.22
2022-10-15T03:16:22.854Z,95887.63
2022-10-15T03:18:52.127Z,95894.19
2022-10-15T03:21:21.293Z,95878.94
2022-10-15T03:23:51.079Z,95882.72
2022-10-15T03:26:24.017Z,95878.13
2022-10-15T03:28:52.805Z,95878.69
2022-10-15T03:31:34.186Z,95876.22
2022-10-15T03:34:05.478Z,95878.13
2022-10-15T03:36:34.056Z,95864.25
2022-10-15T03:39:06.281Z,95878.13
2022-10-15T03:41:34.776Z,95862.59
2022-10-15T03:44:05.021Z,95871.59
2022-10-15T03:46:33.970Z,95868.84
2022-10-15T03:49:03.348Z,95868.03
2022-10-15T03:51:31.929Z,95869.94
2022-10-15T03:54:08.896Z,95876.22
2022-10-15T03:56:44.610Z,95874.59
2022-10-15T03:59:31.160Z,95864.50
2022-10-15T04:02:02.706Z,95867.22
2022-10-15T04:04:33.068Z,95870.22
2022-10-15T04:07:01.900Z,95876.50
2022-10-15T04:09:33.804Z,95868.31
2022-10-15T04:12:22.884Z,95858.53
2022-10-15T04:14:51.538Z,95855.53
2022-10-15T04:17:19.951Z,95860.44
2022-10-15T04:19:50.343Z,95865.59
2022-10-15T04:22:19.904Z,95856.91
2022-10-15T04:24:54.574Z,95852.00
2022-10-15T04:27:30.068Z,95850.91
2022-10-15T04:30:11.295Z,95854.44
2022-10-15T04:32:44.006Z,95841.38
2022-10-15T04:35:13.116Z,95848.72
2022-10-15T04:37:53.522Z,95853.34
2022-10-15T04:40:23.606Z,95853.06
2022-10-15T04:42:52.808Z,95851.97
2022-10-15T04:45:21.743Z,95845.72
2022-10-15T04:47:50.362Z,95836.72
2022-10-15T04:50:20.192Z,95846.50
2022-10-15T04:53:06.917Z,95854.13
2022-10-15T04:55:40.502Z,95840.78
2022-10-15T04:58:09.331Z,95842.16
2022-10-15T05:00:39.324Z,95832.63
2022-10-15T05:06:08.974Z,95846.25
2022-10-15T05:08:42.352Z,95828.84
2022-10-15T05:11:21.901Z,95840.28
2022-10-15T05:13:51.468Z,95838.09
2022-10-15T05:16:21.749Z,95838.63
2022-10-15T05:18:51.666Z,95825.81
2022-10-15T05:21:21.178Z,95830.19
2022-10-15T05:23:53.210Z,95830.44
2022-10-15T05:26:42.798Z,95834.50
2022-10-15T05:29:11.511Z,95837.22
2022-10-15T05:31:40.306Z,95843.19
2022-10-15T05:34:15.928Z,95835.31
2022-10-15T05:36:51.897Z,95842.66
2022-10-15T05:39:20.387Z,95840.75
2022-10-15T05:41:50.414Z,95838.56
2022-10-15T05:44:21.919Z,95843.19
2022-10-15T05:46:51.875Z,95847.81
2022-10-15T05:49:24.752Z,95846.47
2022-10-15T05:52:03.190Z,95845.38
2022-10-15T05:54:55.486Z,95845.91
2022-10-15T05:57:25.241Z,95852.16
2022-10-15T05:59:54.218Z,95849.69
2022-10-15T06:02:23.069Z,95845.03
2022-10-15T06:04:53.394Z,95849.38
2022-10-15T06:07:22.836Z,95866.53
2022-10-15T06:09:51.737Z,95859.16
2022-10-15T06:12:20.981Z,95858.03
2022-10-15T06:14:50.748Z,95863.22
2022-10-15T06:17:20.070Z,95859.91
2022-10-15T06:19:53.119Z,95869.44
2022-10-15T06:22:21.490Z,95867.25
2022-10-15T06:24:50.612Z,95885.50
2022-10-15T06:27:19.015Z,95904.00
2022-10-15T06:29:47.997Z,95889.00
2022-10-15T06:32:18.379Z,95893.34
2022-10-15T06:34:46.721Z,95895.53
2022-10-15T06:37:15.670Z,95904.22
2022-10-15T06:39:44.011Z,95908.28
2022-10-15T06:42:12.763Z,95909.09
2022-10-15T06:44:42.390Z,95916.16
2022-10-15T06:47:11.728Z,95916.97
2022-10-15T06:49:41.508Z,95928.97
2022-10-15T06:52:10.215Z,95931.41
2022-10-15T06:54:38.922Z,95942.28
2022-10-15T06:57:09.705Z,95939.81
2022-10-15T06:59:41.191Z,95939.00
2022-10-15T07:02:10.643Z,95940.63
2022-10-15T07:04:40.026Z,95955.34
2022-10-15T07:07:09.819Z,95956.13
2022-10-15T07:09:38.161Z,95957.75
2022-10-15T07:12:07.522Z,95956.13
2022-10-15T07:14:40.077Z,95970.28
2022-10-15T07:17:10.717Z,95984.75
2022-10-15T07:19:39.566Z,95975.19
2022-10-15T07:22:09.567Z,95981.72
2022-10-15T07:24:37.944Z,95988.25
2022-10-15T07:27:08.289Z,95992.06
2022-10-15T07:29:47.244Z,95985.28
2022-10-15T07:32:15.802Z,95992.06
2022-10-15T07:34:44.201Z,96004.00
2022-10-15T07:37:14.676Z,96003.19
2022-10-15T07:39:43.531Z,95999.34
2022-10-15T07:44:41.559Z,96003.41
2022-10-15T07:47:12.102Z,96002.56
2022-10-15T07:49:40.940Z,96015.91
2022-10-15T07:52:09.485Z,96018.84
2022-10-15T07:54:39.223Z,96005.50
2022-10-15T07:57:08.433Z,96010.66
2022-10-15T07:59:36.964Z,96015.59
2022-10-15T08:02:06.515Z,96022.66
2022-10-15T08:04:35.528Z,96026.22
2022-10-15T08:07:06.793Z,96022.09
2022-10-15T08:09:39.273Z,96028.09
2022-10-15T08:12:08.315Z,96036.00
2022-10-15T08:14:39.087Z,96037.88
2022-10-15T08:17:07.779Z,96043.31
2022-10-15T08:19:36.374Z,96047.66
2022-10-15T08:22:05.594Z,96053.38
2022-10-15T08:24:34.364Z,96053.31
2022-10-15T08:27:04.163Z,96056.06
2022-10-15T08:29:33.153Z,96053.88
2022-10-15T08:32:01.891Z,96061.19
2022-10-15T08:34:32.195Z,96058.72
2022-10-15T08:37:01.427Z,96068.56
2022-10-15T08:39:29.879Z,96073.75
2022-10-15T08:42:02.931Z,96078.97
2022-10-15T08:44:42.621Z,96084.41
2022-10-15T08:47:20.123Z,96077.88
2022-10-15T08:49:51.805Z,96098.06
2022-10-15T08:52:26.313Z,96088.25
2022-10-15T08:54:57.141Z,96097.50
2022-10-15T08:57:39.961Z,96097.75
2022-10-15T09:00:17.058Z,96082.78
2022-10-15T09:02:54.057Z,96112.78
2022-10-15T09:05:35.435Z,96106.78
2022-10-15T09:08:13.512Z,96109.75
2022-10-15T09:10:47.995Z,96107.59
2022-10-15T09:13:27.234Z,96111.09
2022-10-15T09:16:01.489Z,96111.91
2022-10-15T09:18:34.842Z,96115.41
2022-10-15T09:21:05.464Z,96116.75
2022-10-15T09:23:34.999Z,96117.53
2022-10-15T09:26:08.751Z,96116.91
2022-10-15T09:28:44.300Z,96123.97
2022-10-15T09:31:17.733Z,96128.31
2022-10-15T09:33:51.684Z,96130.41
2022-10-15T09:36:38.307Z,96114.84
2022-10-15T09:39:27.723Z,96136.38
2022-10-15T09:42:10.170Z,96148.13
2022-10-15T09:44:43.103Z,96148.94
2022-10-15T09:47:25.089Z,96156.31
2022-10-15T09:49:59.949Z,96153.06
2022-10-15T09:52:44.985Z,96150.28
2022-10-15T09:55:29.051Z,96160.97
2022-10-15T09:58:00.239Z,96155.75
2022-10-15T10:00:57.626Z,96164.16
2022-10-15T10:03:28.202Z,96164.69
2022-10-15T10:06:03.286Z,96160.00
2022-10-15T10:08:41.398Z,96160.97
2022-10-15T10:11:13.273Z,96162.78
2022-10-15T10:13:46.092Z,96163.53
2022-10-15T10:16:18.460Z,96153.59
2022-10-15T10:19:03.801Z,96156.44
2022-10-15T10:21:34.717Z,96151.59
2022-10-15T10:24:23.767Z,96153.63
2022-10-15T10:26:52.199Z,96161.94
2022-10-15T10:29:33.693Z,96161.28
2022-10-15T10:32:13.790Z,96161.53
2022-10-15T10:34:48.715Z,96153.44
2022-10-15T10:37:21.286Z,96151.34
2022-10-15T10:39:54.653Z,96164.25
2022-10-15T10:42:32.951Z,96165.38
2022-10-15T10:45:23.885Z,96163.91
2022-10-15T10:47:53.689Z,96171.44
2022-10-15T10:50:30.377Z,96171.13
2022-10-15T10:53:00.172Z,96163.28
2022-10-15T10:55:38.890Z,96167.66
2022-10-15T10:58:16.209Z,96157.09
2022-10-15T11:00:47.267Z,96163.41
2022-10-15T11:03:24.442Z,96162.16
2022-10-15T11:06:09.686Z,96173.06
2022-10-15T11:08:47.318Z,96168.25
2022-10-15T11:11:23.483Z,96160.53
2022-10-15T11:14:02.696Z,96179.06
2022-10-15T11:16:39.134Z,96165.81
2022-10-15T11:19:50.415Z,96177.84
2022-10-15T11:22:37.765Z,96173.75
2022-10-15T11:25:16.443Z,96172.97
2022-10-15T11:27:57.266Z,96164.72
2022-10-15T11:30:40.412Z,96176.75
2022-10-15T11:33:24.347Z,96179.56
2022-10-15T11:36:10.199Z,96179.25
2022-10-15T11:38:46.833Z,96182.50
2022-10-15T11:41:34.130Z,96192.06
2022-10-15T11:44:21.145Z,96188.31
2022-10-15T11:47:01.572Z,96195.63
2022-10-15T11:49:43.179Z,96182.13
2022-10-15T11:52:35.808Z,96195.22
2022-10-15T11:55:13.268Z,96191.47
2022-10-15T11:57:44.371Z,96179.94
2022-10-15T12:00:27.647Z,96181.19
2022-10-15T12:02:58.955Z,96178.25
2022-10-15T12:05:33.404Z,96172.97
2022-10-15T12:10:58.398Z,96172.13
2022-10-15T12:13:35.276Z,96173.09
2022-10-15T12:16:14.988Z,96172.41
2022-10-15T12:18:51.355Z,96166.69
2022-10-15T12:21:35.372Z,96167.72
2022-10-15T12:24:10.800Z,96173.72
2022-10-15T12:26:39.345Z,96174.09
2022-10-15T12:29:21.661Z,96172.03
2022-10-15T12:31:52.004Z,96166.16
2022-10-15T12:34:31.631Z,96164.72
2022-10-15T12:37:06.041Z,96167.63
2022-10-15T12:39:54.271Z,96175.13
2022-10-15T12:42:30.727Z,96164.56
2022-10-15T12:45:03.096Z,96159.75
2022-10-15T12:47:48.934Z,96162.50
2022-10-15T12:50:23.309Z,96175.47
2022-10-15T12:53:00.832Z,96176.03
2022-10-15T12:55:34.119Z,96176.59
2022-10-15T12:58:06.143Z,96177.09
2022-10-15T13:00:45.615Z,96177.97
2022-10-15T13:03:35.537Z,96181.22
2022-10-15T13:06:27.751Z,96180.31
2022-10-15T13:09:07.073Z,96185.06
2022-10-15T13:11:42.849Z,96185.88
2022-10-15T13:14:21.431Z,96174.00
2022-10-15T13:16:50.951Z,96169.50
2022-10-15T13:19:20.833Z,96177.44
2022-10-15T13:21:57.422Z,96164.00
2022-10-15T13:24:31.779Z,96172.47
2022-10-15T13:27:02.330Z,96167.06
2022-10-15T13:29:31.618Z,96170.25
2022-10-15T13:32:01.362Z,96169.84
2022-10-15T13:34:34.256Z,96171.53
2022-10-15T13:37:04.835Z,96169.91
2022-10-15T13:39:37.090Z,96170.31
2022-10-15T13:42:15.229Z,96167.88
2022-10-15T13:44:44.214Z,96178.09
2022-10-15T13:47:26.560Z,96177.03
2022-10-15T13:50:14.474Z,96172.16
2022-10-15T13:52:44.519Z,96163.94
2022-10-15T13:55:19.151Z,96169.88
2022-10-15T13:57:51.389Z,96168.66
2022-10-15T14:00:26.696Z,96167.50
2022-10-15T14:03:09.833Z,96161.38
2022-10-15T14:05:38.246Z,96161.81
2022-10-15T14:08:07.747Z,96168.25
2022-10-15T14:10:36.814Z,96169.97
2022-10-15T14:13:07.180Z,96165.41
2022-10-15T14:15:53.384Z,96170.72
2022-10-15T14:18:31.504Z,96167.78
2022-10-15T14:21:00.261Z,96174.47
2022-10-15T14:23:29.325Z,96164.16
2022-10-15T14:25:59.877Z,96168.97
2022-10-15T14:28:32.294Z,96167.06
2022-10-15T14:31:02.293Z,96168.69
2022-10-15T14:33:34.821Z,96167.31
2022-10-15T14:36:09.940Z,96178.03
2022-10-15T14:38:38.794Z,96165.88
2022-10-15T14:41:23.329Z,96164.63
2022-10-15T14:44:08.102Z,96164.66
2022-10-15T14:46:41.819Z,96166.63
2022-10-15T14:49:31.344Z,96168.41
2022-10-15T14:52:04.800Z,96170.69
2022-10-15T14:54:39.864Z,96171.78
2022-10-15T14:57:19.883Z,96166.03
2022-10-15T14:59:55.857Z,96161.16
2022-10-15T15:02:28.152Z,96162.50
2022-10-15T15:05:09.622Z,96165.56
2022-10-15T15:07:38.562Z,96167.75
2022-10-15T15:10:09.966Z,96161.94
2022-10-15T15:12:40.554Z,96171.50
2022-10-15T15:15:14.864Z,96171.81
2022-10-15T15:17:44.081Z,96159.81
2022-10-15T15:20:13.363Z,96162.28
2022-10-15T15:22:43.556Z,96163.44
2022-10-15T15:25:16.602Z,96159.84
2022-10-15T15:27:46.193Z,96162.13
2022-10-15T15:30:19.019Z,96160.34
2022-10-15T15:32:48.935Z,96166.16
2022-10-15T15:35:24.326Z,96161.94
2022-10-15T15:37:53.754Z,96166.50
2022-10-15T15:40:22.294Z,96166.69
2022-10-15T15:42:51.336Z,96166.63
2022-10-15T15:45:23.715Z,96167.72
2022-10-15T15:47:52.645Z,96174.94
2022-10-15T15:50:22.943Z,96176.16
2022-10-15T15:52:51.580Z,96174.59
2022-10-15T15:55:23.374Z,96190.63
2022-10-15T15:57:52.148Z,96183.94
2022-10-15T16:00:22.140Z,96186.47
2022-10-15T16:02:54.051Z,96190.97
2022-10-15T16:05:25.454Z,96193.47
2022-10-15T16:07:54.507Z,96195.16
2022-10-15T16:10:22.885Z,96195.81
2022-10-15T16:12:51.491Z,96184.78
2022-10-15T16:15:20.344Z,96189.13
2022-10-15T16:17:50.106Z,96186.22
2022-10-15T16:20:19.175Z,96174.91
2022-10-15T16:22:50.744Z,96187.59
2022-10-15T16:25:20.214Z,96180.47
2022-10-15T16:27:51.682Z,96183.84
2022-10-15T16:30:20.885Z,96190.94
2022-10-15T16:32:51.330Z,96194.41
2022-10-15T16:35:19.951Z,96194.78
2022-10-15T16:37:48.410Z,96203.69
2022-10-15T16:40:19.320Z,96214.25
2022-10-15T16:42:47.760Z,96206.38
2022-10-15T16:45:16.664Z,96205.38
2022-10-15T16:47:45.410Z,96212.38
2022-10-15T16:50:15.124Z,96220.38
2022-10-15T16:52:43.898Z,96222.16
2022-10-15T16:55:12.684Z,96232.69
2022-10-15T16:57:42.282Z,96230.03
2022-10-15T17:00:12.352Z,96235.00
2022-10-15T17:02:40.722Z,96230.69
2022-10-15T17:05:10.730Z,96238.28
2022-10-15T17:07:40.957Z,96245.06
2022-10-15T17:10:13.989Z,96247.91
2022-10-15T17:12:43.349Z,96249.88
2022-10-15T17:15:12.632Z,96249.69
2022-10-15T17:17:41.808Z,96254.34
2022-10-15T17:20:11.657Z,96252.69
2022-10-15T17:22:41.370Z,96248.88
2022-10-15T17:25:12.709Z,96260.63
2022-10-15T17:27:41.996Z,96260.91
2022-10-15T17:30:11.573Z,96273.22
2022-10-15T17:32:41.590Z,96266.13
2022-10-15T17:35:10.185Z,96275.50
2022-10-15T17:37:41.606Z,96275.25
2022-10-15T17:40:10.837Z,96277.44
2022-10-15T17:42:43.079Z,96277.13
2022-10-15T17:45:12.178Z,96274.16
2022-10-15T17:47:41.343Z,96275.81
2022-10-15T17:50:13.249Z,96283.72
2022-10-15T17:52:45.002Z,96285.31
2022-10-15T17:55:14.307Z,96289.03
2022-10-15T17:57:42.690Z,96286.50
2022-10-15T18:00:12.650Z,96290.31
2022-10-15T18:02:41.487Z,96291.78
2022-10-15T18:05:10.126Z,96294.94
2022-10-15T18:07:38.953Z,96294.56
2022-10-15T18:10:12.923Z,96293.28
2022-10-15T18:12:41.308Z,96302.44
2022-10-15T18:15:10.617Z,96309.97
2022-10-15T18:17:39.076Z,96306.22
2022-10-15T18:20:08.039Z,96309.59
2022-10-15T18:22:36.853Z,96315.59
2022-10-15T18:25:05.861Z,96313.22
2022-10-15T18:27:36.618Z,96317.91
2022-10-15T18:30:05.746Z,96314.31
2022-10-15T18:35:08.514Z,96316.03
2022-10-15T18:37:36.839Z,96310.25
2022-10-15T18:40:06.251Z,96315.41
2022-10-15T18:42:35.982Z,96317.94
2022-10-15T18:45:06.860Z,96312.50
2022-10-15T18:47:35.344Z,96309.81
2022-10-15T18:50:06.071Z,96311.16
2022-10-15T18:52:39.945Z,96315.06
2022-10-15T18:55:09.702Z,96320.53
2022-10-15T18:57:45.187Z,96322.00
2022-10-15T19:00:15.154Z,96317.47
2022-10-15T19:02:43.919Z,96326.78
2022-10-15T19:05:12.416Z,96320.22
2022-10-15T19:07:40.970Z,96325.97
2022-10-15T19:10:10.199Z,96330.34
2022-10-15T19:12:38.964Z,96326.25
2022-10-15T19:15:09.999Z,96331.72
2022-10-15T19:17:39.230Z,96323.78
2022-10-15T19:20:08.955Z,96314.53
2022-10-15T19:22:37.348Z,96323.84
2022-10-15T19:25:07.130Z,96322.50
2022-10-15T19:27:35.597Z,96322.22
2022-10-15T19:30:08.544Z,96319.25
2022-10-15T19:32:38.499Z,96326.03
2022-10-15T19:35:07.471Z,96315.47
2022-10-15T19:37:36.365Z,96317.91
2022-10-15T19:40:07.295Z,96323.66
2022-10-15T19:42:36.309Z,96320.97
2022-10-15T19:45:05.122Z,96319.13
2022-10-15T19:47:34.112Z,96321.59
2022-10-15T19:50:04.122Z,96338.34
2022-10-15T19:52:33.095Z,96334.28
2022-10-15T19:55:02.821Z,96334.56
2022-10-15T19:57:31.926Z,96329.94
2022-10-15T20:00:00.314Z,96337.09
2022-10-15T20:02:28.934Z,96353.50
2022-10-15T20:04:57.429Z,96362.53
2022-10-15T20:07:28.055Z,96367.44
2022-10-15T20:09:56.524Z,96378.72
2022-10-15T20:12:25.720Z,96380.34
2022-10-15T20:14:55.336Z,96375.69
2022-10-15T20:17:24.103Z,96367.00
2022-10-15T20:19:52.604Z,96377.06
2022-10-15T20:22:21.458Z,96385.25
2022-10-15T20:24:51.783Z,96385.25
2022-10-15T20:27:20.107Z,96380.91
2022-10-15T20:29:49.354Z,96385.03
2022-10-15T20:32:30.473Z,96374.38
2022-10-15T20:35:03.204Z,96390.22
2022-10-15T20:37:31.922Z,96387.53
2022-10-15T20:40:02.152Z,96386.44
2022-10-15T20:42:30.563Z,96391.38
2022-10-15T20:44:59.255Z,96377.44
2022-10-15T20:47:27.833Z,96389.22
2022-10-15T20:49:56.952Z,96388.41
2022-10-15T20:52:26.183Z,96395.81
2022-10-15T20:54:55.787Z,96388.72
2022-10-15T20:57:26.102Z,96406.19
2022-10-15T20:59:54.578Z,96404.81
2022-10-15T21:02:23.656Z,96404.28
2022-10-15T21:04:53.349Z,96400.75
2022-10-15T21:07:24.897Z,96415.47
2022-10-15T21:09:53.303Z,96417.41
2022-10-15T21:12:22.028Z,96417.13
2022-10-15T21:14:52.395Z,96417.69
2022-10-15T21:17:21.068Z,96422.03
2022-10-15T21:19:52.671Z,96425.59
2022-10-15T21:22:21.729Z,96422.03
2022-10-15T21:24:51.000Z,96425.06
2022-10-15T21:27:19.875Z,96429.41
2022-10-15T21:29:49.446Z,96431.34
2022-10-15T21:32:20.041Z,96435.13
2022-10-15T21:34:48.402Z,96436.81
2022-10-15T21:37:17.543Z,96437.88
2022-10-15T21:39:46.220Z,96437.88
2022-10-15T21:42:14.583Z,96437.34
2022-10-15T21:44:43.663Z,96432.69
2022-10-15T21:47:15.131Z,96437.84
2022-10-15T21:49:45.820Z,96439.19
2022-10-15T21:52:15.159Z,96439.19
2022-10-15T21:54:43.981Z,96435.66
2022-10-15T21:57:12.367Z,96444.38
2022-10-15T21:59:40.726Z,96454.50
2022-10-15T22:02:09.551Z,96442.75
2022-10-15T22:04:38.047Z,96445.22
2022-10-15T22:07:09.676Z,96455.31
2022-10-15T22:09:38.638Z,96455.06
2022-10-15T22:12:07.333Z,96446.06
2022-10-15T22:14:36.171Z,96450.19
2022-10-15T22:17:05.017Z,96452.63
2022-10-15T22:19:33.357Z,96451.53
2022-10-15T22:22:02.452Z,96454.25
2022-10-15T22:24:32.739Z,96457.00
2022-10-15T22:27:02.015Z,96456.47
2022-10-15T22:29:34.441Z,96465.50
2022-10-15T22:32:04.800Z,96464.09
2022-10-15T22:34:33.435Z,96461.66
2022-10-15T22:37:02.528Z,96475.06
2022-10-15T22:39:32.363Z,96473.41
2022-10-15T22:42:01.572Z,96467.97
2022-10-15T22:44:30.360Z,96464.97
2022-10-15T22:46:59.002Z,96466.88
2022-10-15T22:49:28.258Z,96480.53
2022-10-15T22:51:56.771Z,96487.94
2022-10-15T22:54:25.435Z,96485.72
2022-10-15T22:56:55.158Z,96486.81
2022-10-15T22:59:24.457Z,96472.88
2022-10-15T23:01:52.819Z,96486.53
2022-10-15T23:04:21.855Z,96486.00
2022-10-15T23:06:50.720Z,96483.00
2022-10-15T23:09:19.955Z,96489.00
2022-10-15T23:11:49.451Z,96488.47
2022-10-15T23:14:19.664Z,96496.13
2022-10-15T23:16:49.328Z,96491.75
2022-10-15T23:19:20.251Z,96494.75
2022-10-15T23:21:51.446Z,96494.19
2022-10-15T23:24:22.278Z,96493.38
2022-10-15T23:26:51.556Z,96489.28
2022-10-15T23:29:23.682Z,96492.56
2022-10-15T23:31:53.770Z,96492.53
2022-10-15T23:34:24.804Z,96483.81
2022-10-15T23:36:53.788Z,96484.91
2022-10-15T23:39:25.129Z,96480.00
2022-10-15T23:41:54.264Z,96493.09
2022-10-15T23:44:27.279Z,96483.56
2022-10-15T23:46:55.915Z,96498.56
2022-10-15T23:49:24.741Z,96502.41
2022-10-15T23:51:53.099Z,96496.38
2022-10-15T23:54:22.840Z,96488.75
2022-10-15T23:56:51.192Z,96483.31
2022-10-15T23:59:21.745Z,96482.47
